sensor_id;sensor_type;location;lat;lon;timestamp;pressure;altitude;pressure_sealevel;temperature;humidity
12951;BME280;6540;50.858;7.232;2023-05-08T00:01:54;51568.09;;;-142.34;28.25
12951;BME280;6540;50.858;7.232;2023-05-08T00:04:19;51606.44;;;-142.34;28.54
12951;BME280;6540;50.858;7.232;2023-05-08T00:06:47;51545.91;;;-142.34;28.43
12951;BME280;6540;50.858;7.232;2023-05-08T00:09:13;51606.44;;;-142.34;28.80
12951;BME280;6540;50.858;7.232;2023-05-08T00:11:38;51584.22;;;-142.34;28.58
12951;BME280;6540;50.858;7.232;2023-05-08T00:14:04;51560.03;;;-142.34;28.41
12951;BME280;6540;50.858;7.232;2023-05-08T00:16:30;51556.00;;;-142.34;28.34
12951;BME280;6540;50.858;7.232;2023-05-08T00:18:55;51588.28;;;-142.34;28.90
12951;BME280;6540;50.858;7.232;2023-05-08T00:21:21;51568.09;;;-142.34;28.28
12951;BME280;6540;50.858;7.232;2023-05-08T00:23:46;51535.81;;;-142.34;27.93
12951;BME280;6540;50.858;7.232;2023-05-08T00:26:11;51556.00;;;-142.34;27.79
12951;BME280;6540;50.858;7.232;2023-05-08T00:28:37;51568.09;;;-142.34;27.90
12951;BME280;6540;50.858;7.232;2023-05-08T00:31:02;51570.13;;;-142.34;28.68
12951;BME280;6540;50.858;7.232;2023-05-08T00:33:27;51558.00;;;-142.34;28.48
12951;BME280;6540;50.858;7.232;2023-05-08T00:36:00;51580.19;;;-142.34;28.56
12951;BME280;6540;50.858;7.232;2023-05-08T00:38:26;51594.31;;;-142.34;28.46
12951;BME280;6540;50.858;7.232;2023-05-08T00:40:51;51580.19;;;-142.34;28.68
12951;BME280;6540;50.858;7.232;2023-05-08T00:43:17;51556.00;;;-142.34;28.28
12951;BME280;6540;50.858;7.232;2023-05-08T00:45:43;51568.09;;;-142.34;28.74
12951;BME280;6540;50.858;7.232;2023-05-08T00:48:09;51634.66;;;-142.34;29.52
12951;BME280;6540;50.858;7.232;2023-05-08T00:50:35;51588.28;;;-142.34;28.54
12951;BME280;6540;50.858;7.232;2023-05-08T00:53:02;51572.13;;;-142.34;28.53
12951;BME280;6540;50.858;7.232;2023-05-08T00:55:30;51539.84;;;-142.34;28.36
12951;BME280;6540;50.858;7.232;2023-05-08T00:57:56;51608.44;;;-142.34;28.90
12951;BME280;6540;50.858;7.232;2023-05-08T01:00:22;51568.09;;;-142.34;28.32
12951;BME280;6540;50.858;7.232;2023-05-08T01:02:48;51578.19;;;-142.34;28.06
12951;BME280;6540;50.858;7.232;2023-05-08T01:05:13;51598.34;;;-142.34;28.49
12951;BME280;6540;50.858;7.232;2023-05-08T01:07:38;51600.38;;;-142.34;28.42
12951;BME280;6540;50.858;7.232;2023-05-08T01:10:05;51578.19;;;-142.34;28.16
12951;BME280;6540;50.858;7.232;2023-05-08T01:15:15;51580.19;;;-142.34;28.19
12951;BME280;6540;50.858;7.232;2023-05-08T01:20:16;51588.28;;;-142.34;29.36
12951;BME280;6540;50.858;7.232;2023-05-08T01:22:58;51572.13;;;-142.34;28.72
12951;BME280;6540;50.858;7.232;2023-05-08T01:26:07;51549.94;;;-142.34;28.32
12951;BME280;6540;50.858;7.232;2023-05-08T01:31:27;51640.72;;;-142.34;29.61
12951;BME280;6540;50.858;7.232;2023-05-08T01:34:02;51624.56;;;-142.34;30.23
12951;BME280;6540;50.858;7.232;2023-05-08T01:36:38;51616.50;;;-142.34;29.16
12951;BME280;6540;50.858;7.232;2023-05-08T01:42:07;51642.72;;;-142.34;29.32
12951;BME280;6540;50.858;7.232;2023-05-08T01:44:39;51628.63;;;-142.34;28.88
12951;BME280;6540;50.858;7.232;2023-05-08T01:47:09;51612.47;;;-142.34;29.31
12951;BME280;6540;50.858;7.232;2023-05-08T01:49:49;51656.84;;;-142.34;30.22
12951;BME280;6540;50.858;7.232;2023-05-08T01:52:30;51660.88;;;-142.34;30.53
12951;BME280;6540;50.858;7.232;2023-05-08T01:55:04;51624.56;;;-142.34;29.34
12951;BME280;6540;50.858;7.232;2023-05-08T01:57:35;51624.56;;;-142.34;29.61
12951;BME280;6540;50.858;7.232;2023-05-08T02:00:02;51632.66;;;-142.34;29.32
12951;BME280;6540;50.858;7.232;2023-05-08T02:02:33;51636.69;;;-142.34;29.22
12951;BME280;6540;50.858;7.232;2023-05-08T02:05:02;51620.53;;;-142.34;29.02
12951;BME280;6540;50.858;7.232;2023-05-08T02:07:29;51626.59;;;-142.34;29.03
12951;BME280;6540;50.858;7.232;2023-05-08T02:09:56;51568.09;;;-142.34;29.07
12951;BME280;6540;50.858;7.232;2023-05-08T02:12:24;51628.63;;;-142.34;29.93
12951;BME280;6540;50.858;7.232;2023-05-08T02:14:51;51646.75;;;-142.34;30.38
12951;BME280;6540;50.858;7.232;2023-05-08T02:17:17;51656.84;;;-142.34;29.75
12951;BME280;6540;50.858;7.232;2023-05-08T02:19:43;51652.81;;;-142.34;30.24
12951;BME280;6540;50.858;7.232;2023-05-08T02:22:10;51652.81;;;-142.34;30.03
12951;BME280;6540;50.858;7.232;2023-05-08T02:24:37;51624.56;;;-142.34;29.68
12951;BME280;6540;50.858;7.232;2023-05-08T02:27:03;51660.88;;;-142.34;30.19
12951;BME280;6540;50.858;7.232;2023-05-08T02:29:29;51656.84;;;-142.34;29.12
12951;BME280;6540;50.858;7.232;2023-05-08T02:31:56;51614.50;;;-142.34;29.39
12951;BME280;6540;50.858;7.232;2023-05-08T02:34:23;51630.63;;;-142.34;29.22
12951;BME280;6540;50.858;7.232;2023-05-08T02:36:50;51622.56;;;-142.34;29.21
12951;BME280;6540;50.858;7.232;2023-05-08T02:39:18;51636.69;;;-142.34;29.47
12951;BME280;6540;50.858;7.232;2023-05-08T02:41:45;51636.69;;;-142.34;29.35
12951;BME280;6540;50.858;7.232;2023-05-08T02:44:11;51677.03;;;-142.34;30.30
12951;BME280;6540;50.858;7.232;2023-05-08T02:49:15;51636.69;;;-142.34;29.13
12951;BME280;6540;50.858;7.232;2023-05-08T02:52:16;51626.59;;;-142.34;28.70
12951;BME280;6540;50.858;7.232;2023-05-08T02:55:05;51620.53;;;-142.34;29.43
12951;BME280;6540;50.858;7.232;2023-05-08T03:00:15;51612.47;;;-142.34;28.80
12951;BME280;6540;50.858;7.232;2023-05-08T03:02:52;51574.16;;;-142.34;28.19
12951;BME280;6540;50.858;7.232;2023-05-08T03:05:25;51600.38;;;-142.34;28.00
12951;BME280;6540;50.858;7.232;2023-05-08T03:07:58;51612.47;;;-142.34;28.58
12951;BME280;6540;50.858;7.232;2023-05-08T03:10:30;51662.91;;;-142.34;29.55
12951;BME280;6540;50.858;7.232;2023-05-08T03:12:57;51624.56;;;-142.34;28.90
12951;BME280;6540;50.858;7.232;2023-05-08T03:15:33;51654.84;;;-142.34;28.93
12951;BME280;6540;50.858;7.232;2023-05-08T03:18:08;51636.69;;;-142.34;29.75
12951;BME280;6540;50.858;7.232;2023-05-08T03:20:41;51632.66;;;-142.34;28.63
12951;BME280;6540;50.858;7.232;2023-05-08T03:23:08;51616.50;;;-142.34;29.07
12951;BME280;6540;50.858;7.232;2023-05-08T03:25:36;51630.63;;;-142.34;28.58
12951;BME280;6540;50.858;7.232;2023-05-08T03:28:03;51628.63;;;-142.34;28.92
12951;BME280;6540;50.858;7.232;2023-05-08T03:30:30;51640.72;;;-142.34;29.97
12951;BME280;6540;50.858;7.232;2023-05-08T03:32:57;51670.97;;;-142.34;29.89
12951;BME280;6540;50.858;7.232;2023-05-08T03:35:23;51662.91;;;-142.34;29.95
12951;BME280;6540;50.858;7.232;2023-05-08T03:37:51;51644.75;;;-142.34;30.21
12951;BME280;6540;50.858;7.232;2023-05-08T03:40:17;51656.84;;;-142.34;29.81
12951;BME280;6540;50.858;7.232;2023-05-08T03:42:43;51666.94;;;-142.34;30.40
12951;BME280;6540;50.858;7.232;2023-05-08T03:45:09;51677.03;;;-142.34;30.29
12951;BME280;6540;50.858;7.232;2023-05-08T03:47:35;51673.00;;;-142.34;29.97
12951;BME280;6540;50.858;7.232;2023-05-08T03:50:01;51723.41;;;-142.34;30.93
12951;BME280;6540;50.858;7.232;2023-05-08T03:52:27;51705.25;;;-142.34;30.39
12951;BME280;6540;50.858;7.232;2023-05-08T03:54:53;51689.13;;;-142.34;31.13
12951;BME280;6540;50.858;7.232;2023-05-08T03:57:18;51713.34;;;-142.34;30.59
12951;BME280;6540;50.858;7.232;2023-05-08T04:05:01;51697.19;;;-142.34;29.77
12951;BME280;6540;50.858;7.232;2023-05-08T04:07:42;51677.03;;;-142.34;29.92
12951;BME280;6540;50.858;7.232;2023-05-08T04:10:21;51697.19;;;-142.34;30.63
12951;BME280;6540;50.858;7.232;2023-05-08T04:13:11;51717.38;;;-142.34;29.95
12951;BME280;6540;50.858;7.232;2023-05-08T04:15:42;51713.34;;;-142.34;30.93
12951;BME280;6540;50.858;7.232;2023-05-08T04:18:16;51717.38;;;-142.34;30.86
12951;BME280;6540;50.858;7.232;2023-05-08T04:20:45;51691.16;;;-142.34;30.09
12951;BME280;6540;50.858;7.232;2023-05-08T04:23:13;51640.72;;;-142.34;28.83
12951;BME280;6540;50.858;7.232;2023-05-08T04:25:41;51660.88;;;-142.34;29.21
12951;BME280;6540;50.858;7.232;2023-05-08T04:28:07;51707.28;;;-142.34;30.71
12951;BME280;6540;50.858;7.232;2023-05-08T04:30:32;51689.13;;;-142.34;29.45
12951;BME280;6540;50.858;7.232;2023-05-08T04:32:59;51673.00;;;-142.34;30.14
12951;BME280;6540;50.858;7.232;2023-05-08T04:35:26;51681.06;;;-142.34;29.51
12951;BME280;6540;50.858;7.232;2023-05-08T04:37:52;51711.31;;;-142.34;30.89
12951;BME280;6540;50.858;7.232;2023-05-08T04:40:17;51685.09;;;-142.34;30.04
12951;BME280;6540;50.858;7.232;2023-05-08T04:42:42;51729.47;;;-142.34;31.98
12951;BME280;6540;50.858;7.232;2023-05-08T04:45:11;51668.97;;;-142.34;30.58
12951;BME280;6540;50.858;7.232;2023-05-08T04:47:36;51705.25;;;-142.34;30.48
12951;BME280;6540;50.858;7.232;2023-05-08T04:50:02;51664.91;;;-142.34;29.70
12951;BME280;6540;50.858;7.232;2023-05-08T04:52:27;51723.41;;;-142.34;31.77
12951;BME280;6540;50.858;7.232;2023-05-08T04:54:52;51727.44;;;-142.34;30.88
12951;BME280;6540;50.858;7.232;2023-05-08T04:57:18;51652.81;;;-142.34;29.79
12951;BME280;6540;50.858;7.232;2023-05-08T04:59:43;51679.03;;;-142.34;29.46
12951;BME280;6540;50.858;7.232;2023-05-08T05:02:09;51697.19;;;-142.34;29.26
12951;BME280;6540;50.858;7.232;2023-05-08T05:04:35;51608.44;;;-142.34;28.27
12951;BME280;6540;50.858;7.232;2023-05-08T05:07:01;51660.88;;;-142.34;29.15
12951;BME280;6540;50.858;7.232;2023-05-08T05:09:27;51648.78;;;-142.34;29.10
12951;BME280;6540;50.858;7.232;2023-05-08T05:11:52;51624.56;;;-142.34;28.34
12951;BME280;6540;50.858;7.232;2023-05-08T05:14:18;51616.50;;;-142.34;27.86
12951;BME280;6540;50.858;7.232;2023-05-08T05:16:43;51636.69;;;-142.34;28.33
12951;BME280;6540;50.858;7.232;2023-05-08T05:19:08;51634.66;;;-142.34;29.09
12951;BME280;6540;50.858;7.232;2023-05-08T05:21:34;51620.53;;;-142.34;29.02
12951;BME280;6540;50.858;7.232;2023-05-08T05:24:01;51685.09;;;-142.34;28.73
12951;BME280;6540;50.858;7.232;2023-05-08T05:26:27;51691.16;;;-142.34;29.67
12951;BME280;6540;50.858;7.232;2023-05-08T05:28:52;51628.63;;;-142.34;28.78
12951;BME280;6540;50.858;7.232;2023-05-08T05:31:18;51642.72;;;-142.34;28.67
12951;BME280;6540;50.858;7.232;2023-05-08T05:33:43;51668.97;;;-142.34;29.90
12951;BME280;6540;50.858;7.232;2023-05-08T05:36:08;51693.16;;;-142.34;29.95
12951;BME280;6540;50.858;7.232;2023-05-08T05:38:34;51687.09;;;-142.34;30.13
12951;BME280;6540;50.858;7.232;2023-05-08T05:40:59;51664.91;;;-142.34;29.60
12951;BME280;6540;50.858;7.232;2023-05-08T05:43:25;51689.13;;;-142.34;30.19
12951;BME280;6540;50.858;7.232;2023-05-08T05:45:50;51673.00;;;-142.34;30.07
12951;BME280;6540;50.858;7.232;2023-05-08T05:48:15;51640.72;;;-142.34;29.32
12951;BME280;6540;50.858;7.232;2023-05-08T05:50:41;51644.75;;;-142.34;28.73
12951;BME280;6540;50.858;7.232;2023-05-08T05:53:06;51632.66;;;-142.34;28.72
12951;BME280;6540;50.858;7.232;2023-05-08T05:55:31;51618.53;;;-142.34;29.26
12951;BME280;6540;50.858;7.232;2023-05-08T05:57:57;51670.97;;;-142.34;29.46
12951;BME280;6540;50.858;7.232;2023-05-08T06:00:22;51683.06;;;-142.34;30.23
12951;BME280;6540;50.858;7.232;2023-05-08T06:02:47;51654.84;;;-142.34;30.48
12951;BME280;6540;50.858;7.232;2023-05-08T06:05:13;51689.13;;;-142.34;30.68
12951;BME280;6540;50.858;7.232;2023-05-08T06:07:39;51628.63;;;-142.34;29.49
12951;BME280;6540;50.858;7.232;2023-05-08T06:10:05;51644.75;;;-142.34;29.30
12951;BME280;6540;50.858;7.232;2023-05-08T06:12:31;51640.72;;;-142.34;29.39
12951;BME280;6540;50.858;7.232;2023-05-08T06:14:56;51640.72;;;-142.34;28.96
12951;BME280;6540;50.858;7.232;2023-05-08T06:17:21;51606.44;;;-142.34;28.48
12951;BME280;6540;50.858;7.232;2023-05-08T06:19:47;51664.91;;;-142.34;29.50
12951;BME280;6540;50.858;7.232;2023-05-08T06:22:17;51640.72;;;-142.34;29.48
12951;BME280;6540;50.858;7.232;2023-05-08T06:24:44;51662.91;;;-142.34;29.02
12951;BME280;6540;50.858;7.232;2023-05-08T06:27:10;51687.09;;;-142.34;29.28
12951;BME280;6540;50.858;7.232;2023-05-08T06:29:35;51689.13;;;-142.34;30.00
12951;BME280;6540;50.858;7.232;2023-05-08T06:32:01;51679.03;;;-142.34;30.20
12951;BME280;6540;50.858;7.232;2023-05-08T06:34:26;51664.91;;;-142.34;29.92
12951;BME280;6540;50.858;7.232;2023-05-08T06:36:51;51685.09;;;-142.34;31.04
12951;BME280;6540;50.858;7.232;2023-05-08T06:39:17;51673.00;;;-142.34;29.38
12951;BME280;6540;50.858;7.232;2023-05-08T06:41:46;51658.88;;;-142.34;30.37
12951;BME280;6540;50.858;7.232;2023-05-08T06:44:11;51673.00;;;-142.34;29.60
12951;BME280;6540;50.858;7.232;2023-05-08T06:46:37;51685.09;;;-142.34;30.65
12951;BME280;6540;50.858;7.232;2023-05-08T06:49:02;51697.19;;;-142.34;30.95
12951;BME280;6540;50.858;7.232;2023-05-08T06:51:27;51689.13;;;-142.34;30.56
12951;BME280;6540;50.858;7.232;2023-05-08T06:53:53;51689.13;;;-142.34;30.60
12951;BME280;6540;50.858;7.232;2023-05-08T06:56:18;51636.69;;;-142.34;28.66
12951;BME280;6540;50.858;7.232;2023-05-08T06:58:44;51632.66;;;-142.34;28.56
12951;BME280;6540;50.858;7.232;2023-05-08T07:01:09;51632.66;;;-142.34;28.69
12951;BME280;6540;50.858;7.232;2023-05-08T07:03:34;51689.13;;;-142.34;31.73
12951;BME280;6540;50.858;7.232;2023-05-08T07:06:01;51727.44;;;-142.34;31.48
12951;BME280;6540;50.858;7.232;2023-05-08T07:08:26;51713.34;;;-142.34;30.19
12951;BME280;6540;50.858;7.232;2023-05-08T07:10:54;51673.00;;;-142.34;30.20
12951;BME280;6540;50.858;7.232;2023-05-08T07:13:19;51703.25;;;-142.34;30.50
12951;BME280;6540;50.858;7.232;2023-05-08T07:15:46;51664.91;;;-142.34;29.85
12951;BME280;6540;50.858;7.232;2023-05-08T07:18:11;51668.97;;;-142.34;29.28
12951;BME280;6540;50.858;7.232;2023-05-08T07:20:37;51666.94;;;-142.34;29.75
12951;BME280;6540;50.858;7.232;2023-05-08T07:23:02;51681.06;;;-142.34;31.62
12951;BME280;6540;50.858;7.232;2023-05-08T07:25:27;51737.53;;;-142.34;31.23
12951;BME280;6540;50.858;7.232;2023-05-08T07:27:53;51666.94;;;-142.34;30.46
12951;BME280;6540;50.858;7.232;2023-05-08T07:30:18;51691.16;;;-142.34;31.50
12951;BME280;6540;50.858;7.232;2023-05-08T07:32:44;51693.16;;;-142.34;30.57
12951;BME280;6540;50.858;7.232;2023-05-08T07:35:09;51721.41;;;-142.34;31.31
12951;BME280;6540;50.858;7.232;2023-05-08T07:37:37;51660.88;;;-142.34;29.34
12951;BME280;6540;50.858;7.232;2023-05-08T07:40:02;51618.53;;;-142.34;30.10
12951;BME280;6540;50.858;7.232;2023-05-08T07:42:28;51644.75;;;-142.34;28.93
12951;BME280;6540;50.858;7.232;2023-05-08T07:44:53;51681.06;;;-142.34;29.78
12951;BME280;6540;50.858;7.232;2023-05-08T07:47:18;51640.72;;;-142.34;29.65
12951;BME280;6540;50.858;7.232;2023-05-08T07:49:44;51664.91;;;-142.34;30.04
12951;BME280;6540;50.858;7.232;2023-05-08T07:52:09;51681.06;;;-142.34;30.14
12951;BME280;6540;50.858;7.232;2023-05-08T07:54:34;51693.16;;;-142.34;31.58
12951;BME280;6540;50.858;7.232;2023-05-08T07:57:00;51675.00;;;-142.34;29.92
12951;BME280;6540;50.858;7.232;2023-05-08T07:59:25;51616.50;;;-142.34;29.49
12951;BME280;6540;50.858;7.232;2023-05-08T08:01:50;51606.44;;;-142.34;29.12
12951;BME280;6540;50.858;7.232;2023-05-08T08:04:16;51602.38;;;-142.34;29.03
12951;BME280;6540;50.858;7.232;2023-05-08T08:06:41;51612.47;;;-142.34;29.39
12951;BME280;6540;50.858;7.232;2023-05-08T08:09:07;51612.47;;;-142.34;28.94
12951;BME280;6540;50.858;7.232;2023-05-08T08:11:32;51551.97;;;-142.34;28.73
12951;BME280;6540;50.858;7.232;2023-05-08T08:13:58;51547.94;;;-142.34;27.75
12951;BME280;6540;50.858;7.232;2023-05-08T08:16:23;51545.91;;;-142.34;27.99
12951;BME280;6540;50.858;7.232;2023-05-08T08:18:49;51644.75;;;-142.34;30.19
12951;BME280;6540;50.858;7.232;2023-05-08T08:21:15;51608.44;;;-142.34;28.78
12951;BME280;6540;50.858;7.232;2023-05-08T08:23:41;51612.47;;;-142.34;29.52
12951;BME280;6540;50.858;7.232;2023-05-08T08:26:06;51644.75;;;-142.34;31.45
12951;BME280;6540;50.858;7.232;2023-05-08T08:28:31;51644.75;;;-142.34;29.17
12951;BME280;6540;50.858;7.232;2023-05-08T08:30:57;51604.41;;;-142.34;28.79
12951;BME280;6540;50.858;7.232;2023-05-08T08:33:22;51612.47;;;-142.34;28.92
12951;BME280;6540;50.858;7.232;2023-05-08T08:35:48;51588.28;;;-142.34;28.55
12951;BME280;6540;50.858;7.232;2023-05-08T08:38:13;51618.53;;;-142.34;29.27
12951;BME280;6540;50.858;7.232;2023-05-08T08:40:39;51632.66;;;-142.34;29.64
12951;BME280;6540;50.858;7.232;2023-05-08T08:43:06;51656.84;;;-142.34;29.63
12951;BME280;6540;50.858;7.232;2023-05-08T08:45:31;51666.94;;;-142.34;30.23
12951;BME280;6540;50.858;7.232;2023-05-08T08:48:00;51664.91;;;-142.34;29.34
12951;BME280;6540;50.858;7.232;2023-05-08T08:50:30;51689.13;;;-142.34;31.16
12951;BME280;6540;50.858;7.232;2023-05-08T08:55:25;51693.16;;;-142.34;30.70
12951;BME280;6540;50.858;7.232;2023-05-08T09:00:48;51673.00;;;-142.34;30.17
12951;BME280;6540;50.858;7.232;2023-05-08T09:03:14;51636.69;;;-142.34;30.23
12951;BME280;6540;50.858;7.232;2023-05-08T09:05:40;51660.88;;;-142.34;29.98
12951;BME280;6540;50.858;7.232;2023-05-08T09:08:05;51604.41;;;-142.34;28.95
12951;BME280;6540;50.858;7.232;2023-05-08T09:10:34;51644.75;;;-142.34;29.46
12951;BME280;6540;50.858;7.232;2023-05-08T09:13:00;51656.84;;;-142.34;30.61
12951;BME280;6540;50.858;7.232;2023-05-08T09:15:25;51697.19;;;-142.34;30.64
12951;BME280;6540;50.858;7.232;2023-05-08T09:17:51;51703.25;;;-142.34;31.39
12951;BME280;6540;50.858;7.232;2023-05-08T09:20:16;51683.06;;;-142.34;30.51
12951;BME280;6540;50.858;7.232;2023-05-08T09:22:42;51628.63;;;-142.34;29.65
12951;BME280;6540;50.858;7.232;2023-05-08T09:25:08;51584.22;;;-142.34;28.73
12951;BME280;6540;50.858;7.232;2023-05-08T09:27:33;51612.47;;;-142.34;28.88
12951;BME280;6540;50.858;7.232;2023-05-08T09:30:04;51596.34;;;-142.34;28.78
12951;BME280;6540;50.858;7.232;2023-05-08T09:32:30;51582.22;;;-142.34;28.90
12951;BME280;6540;50.858;7.232;2023-05-08T09:34:57;51582.22;;;-142.34;28.62
12951;BME280;6540;50.858;7.232;2023-05-08T09:37:24;51594.31;;;-142.34;29.20
12951;BME280;6540;50.858;7.232;2023-05-08T09:39:50;51646.75;;;-142.34;29.20
12951;BME280;6540;50.858;7.232;2023-05-08T09:42:15;51638.69;;;-142.34;29.75
12951;BME280;6540;50.858;7.232;2023-05-08T09:44:45;51664.91;;;-142.34;30.75
12951;BME280;6540;50.858;7.232;2023-05-08T09:47:26;51636.69;;;-142.34;29.05
12951;BME280;6540;50.858;7.232;2023-05-08T09:50:39;51628.63;;;-142.34;29.36
12951;BME280;6540;50.858;7.232;2023-05-08T09:54:19;51616.50;;;-142.34;29.09
12951;BME280;6540;50.858;7.232;2023-05-08T09:56:37;51568.09;;;-142.34;28.10
12951;BME280;6540;50.858;7.232;2023-05-08T09:59:27;51592.31;;;-142.34;29.19
12951;BME280;6540;50.858;7.232;2023-05-08T10:01:54;51644.75;;;-142.34;30.33
12951;BME280;6540;50.858;7.232;2023-05-08T10:04:35;51677.03;;;-142.34;30.48
12951;BME280;6540;50.858;7.232;2023-05-08T10:07:01;51660.88;;;-142.34;30.01
12951;BME280;6540;50.858;7.232;2023-05-08T10:09:27;51640.72;;;-142.34;29.98
12951;BME280;6540;50.858;7.232;2023-05-08T10:11:53;51681.06;;;-142.34;30.50
12951;BME280;6540;50.858;7.232;2023-05-08T10:14:21;51644.75;;;-142.34;30.14
12951;BME280;6540;50.858;7.232;2023-05-08T10:16:50;51675.00;;;-142.34;30.31
12951;BME280;6540;50.858;7.232;2023-05-08T10:19:22;51656.84;;;-142.34;30.74
12951;BME280;6540;50.858;7.232;2023-05-08T10:21:51;51697.19;;;-142.34;30.44
12951;BME280;6540;50.858;7.232;2023-05-08T10:24:31;51618.53;;;-142.34;29.32
12951;BME280;6540;50.858;7.232;2023-05-08T10:27:11;51628.63;;;-142.34;29.48
12951;BME280;6540;50.858;7.232;2023-05-08T10:29:52;51612.47;;;-142.34;29.17
12951;BME280;6540;50.858;7.232;2023-05-08T10:32:22;51644.75;;;-142.34;30.74
12951;BME280;6540;50.858;7.232;2023-05-08T10:35:14;51648.78;;;-142.34;29.52
12951;BME280;6540;50.858;7.232;2023-05-08T10:37:39;51652.81;;;-142.34;31.30
12951;BME280;6540;50.858;7.232;2023-05-08T10:40:07;51664.91;;;-142.34;31.33
12951;BME280;6540;50.858;7.232;2023-05-08T10:42:33;51731.50;;;-142.34;32.82
12951;BME280;6540;50.858;7.232;2023-05-08T10:45:01;51673.00;;;-142.34;30.50
12951;BME280;6540;50.858;7.232;2023-05-08T10:47:35;51656.84;;;-142.34;30.22
12951;BME280;6540;50.858;7.232;2023-05-08T10:53:06;51648.78;;;-142.34;30.21
12951;BME280;6540;50.858;7.232;2023-05-08T10:55:36;51662.91;;;-142.34;30.79
12951;BME280;6540;50.858;7.232;2023-05-08T11:00:32;51701.22;;;-142.34;30.65
12951;BME280;6540;50.858;7.232;2023-05-08T11:03:23;51644.75;;;-142.34;29.74
12951;BME280;6540;50.858;7.232;2023-05-08T11:05:51;51673.00;;;-142.34;31.96
12951;BME280;6540;50.858;7.232;2023-05-08T11:08:21;51660.88;;;-142.34;30.19
12951;BME280;6540;50.858;7.232;2023-05-08T11:11:27;51691.16;;;-142.34;30.96
12951;BME280;6540;50.858;7.232;2023-05-08T11:13:58;51666.94;;;-142.34;31.77
12951;BME280;6540;50.858;7.232;2023-05-08T11:24:35;51616.50;;;-142.34;29.40
12951;BME280;6540;50.858;7.232;2023-05-08T11:27:01;51648.78;;;-142.34;29.60
12951;BME280;6540;50.858;7.232;2023-05-08T11:29:26;51693.16;;;-142.34;31.70
12951;BME280;6540;50.858;7.232;2023-05-08T11:31:52;51709.31;;;-142.34;31.60
12951;BME280;6540;50.858;7.232;2023-05-08T11:37:16;51646.75;;;-142.34;29.64
12951;BME280;6540;50.858;7.232;2023-05-08T11:39:41;51648.78;;;-142.34;30.01
12951;BME280;6540;50.858;7.232;2023-05-08T11:47:35;51652.81;;;-142.34;30.50
12951;BME280;6540;50.858;7.232;2023-05-08T11:50:01;51614.50;;;-142.34;29.20
12951;BME280;6540;50.858;7.232;2023-05-08T11:52:27;51582.22;;;-142.34;28.95
12951;BME280;6540;50.858;7.232;2023-05-08T11:54:55;51592.31;;;-142.34;28.29
12951;BME280;6540;50.858;7.232;2023-05-08T11:57:21;51568.09;;;-142.34;28.48
12951;BME280;6540;50.858;7.232;2023-05-08T11:59:50;51592.31;;;-142.34;29.35
12951;BME280;6540;50.858;7.232;2023-05-08T12:02:16;51648.78;;;-142.34;29.53
12951;BME280;6540;50.858;7.232;2023-05-08T12:04:43;51588.28;;;-142.34;29.64
12951;BME280;6540;50.858;7.232;2023-05-08T12:07:09;51628.63;;;-142.34;30.54
12951;BME280;6540;50.858;7.232;2023-05-08T12:09:35;51654.84;;;-142.34;32.15
12951;BME280;6540;50.858;7.232;2023-05-08T12:12:02;51677.03;;;-142.34;30.83
12951;BME280;6540;50.858;7.232;2023-05-08T12:14:27;51602.38;;;-142.34;28.92
12951;BME280;6540;50.858;7.232;2023-05-08T12:16:53;51531.78;;;-142.34;28.38
12951;BME280;6540;50.858;7.232;2023-05-08T12:19:18;51600.38;;;-142.34;30.19
12951;BME280;6540;50.858;7.232;2023-05-08T12:21:47;51636.69;;;-142.34;31.09
12951;BME280;6540;50.858;7.232;2023-05-08T12:24:14;51654.84;;;-142.34;29.67
12951;BME280;6540;50.858;7.232;2023-05-08T12:26:42;51576.16;;;-142.34;28.36
12951;BME280;6540;50.858;7.232;2023-05-08T12:29:08;51584.22;;;-142.34;28.67
12951;BME280;6540;50.858;7.232;2023-05-08T12:31:34;51556.00;;;-142.34;28.39
12951;BME280;6540;50.858;7.232;2023-05-08T12:34:02;51586.25;;;-142.34;29.60
12951;BME280;6540;50.858;7.232;2023-05-08T12:36:27;51600.38;;;-142.34;28.45
12951;BME280;6540;50.858;7.232;2023-05-08T12:39:08;51592.31;;;-142.34;29.97
12951;BME280;6540;50.858;7.232;2023-05-08T12:41:33;51572.13;;;-142.34;28.50
12951;BME280;6540;50.858;7.232;2023-05-08T12:43:58;51576.16;;;-142.34;29.39
12951;BME280;6540;50.858;7.232;2023-05-08T12:46:24;51570.13;;;-142.34;28.91
12951;BME280;6540;50.858;7.232;2023-05-08T12:48:49;51535.81;;;-142.34;28.54
12951;BME280;6540;50.858;7.232;2023-05-08T12:51:14;51606.44;;;-142.34;29.59
12951;BME280;6540;50.858;7.232;2023-05-08T12:53:40;51598.34;;;-142.34;30.43
12951;BME280;6540;50.858;7.232;2023-05-08T12:56:05;51564.06;;;-142.34;29.12
12951;BME280;6540;50.858;7.232;2023-05-08T12:58:32;51568.09;;;-142.34;29.17
12951;BME280;6540;50.858;7.232;2023-05-08T13:01:06;51495.47;;;-142.34;28.30
12951;BME280;6540;50.858;7.232;2023-05-08T13:03:34;51511.63;;;-142.34;27.45
12951;BME280;6540;50.858;7.232;2023-05-08T13:05:59;51503.53;;;-142.34;27.81
12951;BME280;6540;50.858;7.232;2023-05-08T13:08:36;51515.66;;;-142.34;29.10
12951;BME280;6540;50.858;7.232;2023-05-08T13:11:05;51531.78;;;-142.34;28.96
12951;BME280;6540;50.858;7.232;2023-05-08T13:13:35;51519.69;;;-142.34;27.97
12951;BME280;6540;50.858;7.232;2023-05-08T13:16:03;51600.38;;;-142.34;30.12
12951;BME280;6540;50.858;7.232;2023-05-08T13:18:29;51648.78;;;-142.34;31.37
12951;BME280;6540;50.858;7.232;2023-05-08T13:20:55;51616.50;;;-142.34;30.04
12951;BME280;6540;50.858;7.232;2023-05-08T13:23:21;51600.38;;;-142.34;29.70
12951;BME280;6540;50.858;7.232;2023-05-08T13:25:47;51632.66;;;-142.34;30.55
12951;BME280;6540;50.858;7.232;2023-05-08T13:28:12;51652.81;;;-142.34;31.13
12951;BME280;6540;50.858;7.232;2023-05-08T13:30:38;51628.63;;;-142.34;31.01
12951;BME280;6540;50.858;7.232;2023-05-08T13:33:04;51634.66;;;-142.34;30.31
12951;BME280;6540;50.858;7.232;2023-05-08T13:35:30;51610.47;;;-142.34;28.76
12951;BME280;6540;50.858;7.232;2023-05-08T13:37:56;51521.69;;;-142.34;28.19
12951;BME280;6540;50.858;7.232;2023-05-08T13:40:23;51499.50;;;-142.34;28.00
12951;BME280;6540;50.858;7.232;2023-05-08T13:42:48;51491.44;;;-142.34;27.64
12951;BME280;6540;50.858;7.232;2023-05-08T13:45:14;51436.97;;;-142.34;27.07